Date,TemperatureHighF,TemperatureAvgF,TemperatureLowF,DewpointHighF,DewpointAvgF,DewpointLowF,HumidityHigh,HumidityAvg,HumidityLow,PressureMaxIn,PressureMinIn,WindSpeedMaxMPH,WindSpeedAvgMPH,GustSpeedMaxMPH,PrecipitationSumIn
2013-1-1,43.0,32.4,18.0,28.0,18.1,4.0,69,58,47,29.95,29.74,23,6,23,0.00
2013-1-2,34.0,23.7,12.0,19.0,11.2,-5.0,73,62,47,30.20,29.92,18,6,19,0.00
2013-1-3,32.0,15.5,3.0,22.0,4.7,-5.0,74,65,54,30.20,29.92,15,2,16,0.00
2013-1-4,44.0,35.7,22.0,27.0,22.0,11.0,75,61,47,30.07,29.81,19,4,19,0.05
2013-1-5,43.0,36.5,27.0,27.0,22.6,18.0,75,60,47,30.22,29.89,16,4,16,0.00
2013-1-6,47.0,38.8,29.0,29.0,27.2,20.0,84,67,51,30.17,29.88,16,3,18,0.00
2013-1-7,42.0,34.6,24.0,35.0,24.1,17.0,82,69,58,30.34,29.96,22,4,22,0.00
2013-1-8,48.0,36.7,29.0,29.0,25.6,18.0,83,68,49,30.34,30.22,13,3,17,0.00
2013-1-9,52.0,39.8,23.0,37.0,28.4,18.0,90,68,39,30.36,29.97,34,6,36,0.00
2013-1-10,50.0,43.0,33.0,28.0,25.1,23.0,72,52,40,30.51,30.13,28,7,34,0.00
2013-1-11,45.0,37.4,29.0,42.0,30.9,23.0,94,80,60,30.49,30.05,16,4,16,0.04
2013-1-12,49.0,44.5,41.0,47.0,43.0,39.0,96,94,92,30.11,30.02,11,3,13,0.00
2013-1-13,52.0,46.9,41.0,49.0,45.9,40.0,97,96,95,30.09,29.78,23,6,32,0.07
2013-1-14,54.0,46.8,40.0,53.0,38.3,25.0,96,75,55,30.29,29.78,24,7,27,0.07
2013-1-15,42.0,38.0,36.0,27.0,24.8,23.0,69,62,52,30.32,30.03,14,4,15,0.00
2013-1-16,37.0,35.2,33.0,35.0,31.4,25.0,94,88,68,30.18,29.78,5,0,5,0.00
2013-1-17,43.0,34.6,28.0,40.0,25.9,5.0,95,74,51,30.28,29.83,16,4,18,0.14
2013-1-18,32.0,26.1,22.0,14.0,8.0,-2.0,61,49,36,30.37,30.04,24,6,28,0.00
2013-1-19,49.0,41.4,28.0,30.0,23.2,12.0,60,51,41,30.23,29.56,27,10,27,0.08
2013-1-20,53.0,40.9,28.0,35.0,21.5,10.0,62,49,24,30.03,29.56,27,8,28,0.00
2013-1-21,31.0,26.7,20.0,22.0,16.1,-1.0,84,68,47,30.03,29.74,21,3,25,0.00
2013-1-22,26.0,20.5,15.0,20.0,0.2,-6.0,83,44,31,30.12,29.75,22,6,23,0.00
2013-1-23,19.0,13.1,6.0,5.0,-2.8,-5.0,72,52,36,30.15,30.07,20,4,21,0.00
2013-1-24,22.0,14.7,5.0,4.0,-0.6,-6.0,73,55,30,30.34,30.09,33,7,35,0.00
2013-1-25,23.0,18.1,11.0,13.0,5.9,0.0,82,62,45,30.35,30.00,13,4,16,0.00
2013-1-26,28.0,19.3,14.0,12.0,7.7,3.0,84,65,39,30.39,30.00,23,6,24,0.00
2013-1-27,35.0,23.5,12.0,13.0,4.2,1.0,80,49,26,30.45,30.29,17,4,19,0.00
2013-1-28,38.0,30.9,20.0,35.0,23.2,2.0,91,77,47,30.43,29.90,19,3,19,0.00
2013-1-29,46.0,39.5,33.0,41.0,36.1,30.0,92,88,79,30.09,29.76,25,4,25,0.03
2013-1-30,60.0,52.3,43.0,59.0,51.1,41.0,96,95,91,29.99,28.88,25,7,26,0.99
2013-1-31,60.0,45.2,33.0,59.0,29.0,9.0,96,58,34,29.75,28.88,26,8,32,1.00
2013-2-1,34.0,29.4,24.0,17.0,9.9,5.0,63,46,37,30.18,29.63,25,7,29,0.00
2013-2-2,32.0,25.9,17.0,19.0,12.7,7.0,78,61,38,30.18,29.90,21,5,23,0.00
2013-2-3,34.0,26.4,18.0,22.0,16.7,12.0,85,71,46,29.99,29.73,12,1,16,0.00
2013-2-4,32.0,27.3,24.0,21.0,12.0,6.0,79,56,37,29.94,29.73,21,4,24,0.00
2013-2-5,34.0,28.4,23.0,26.0,17.5,12.0,84,67,51,29.97,29.84,9,3,9,0.00
2013-2-6,41.0,31.9,21.0,30.0,16.6,1.0,89,59,28,30.45,29.85,21,5,24,0.00
2013-2-7,33.0,27.6,20.0,17.0,9.0,5.0,61,48,36,30.48,30.15,11,3,13,0.00
2013-2-8,34.0,31.1,28.0,30.0,23.1,13.0,93,77,48,30.30,29.73,26,5,26,0.00
2013-2-9,30.0,24.2,12.0,26.0,13.0,-3.0,94,67,41,30.42,29.78,34,10,34,0.00
2013-2-10,36.0,22.1,7.0,18.0,6.1,-3.0,73,54,35,30.45,30.01,21,3,21,0.00
2013-2-11,45.0,39.3,33.0,42.0,33.5,11.0,93,82,42,30.21,29.61,16,6,20,0.08
2013-2-12,46.0,42.4,39.0,42.0,28.9,22.0,93,62,51,29.91,29.65,19,5,19,0.00
2013-2-13,46.0,40.2,35.0,27.0,23.5,20.0,67,54,42,29.88,29.67,13,2,13,0.00
2013-2-14,46.0,39.1,28.0,28.0,24.7,20.0,78,59,45,29.90,29.67,13,3,16,0.00
2013-2-15,56.0,44.7,36.0,34.0,29.2,25.0,87,58,41,29.96,29.83,18,6,18,0.00
2013-2-16,38.0,33.7,29.0,33.0,20.9,5.0,92,64,44,29.96,29.65,23,7,26,0.00
2013-2-17,29.0,24.7,20.0,12.0,5.3,0.0,55,46,31,30.11,29.62,42,12,44,0.00
2013-2-18,36.0,25.8,18.0,13.0,5.4,0.0,64,45,29,30.14,29.90,26,7,28,0.00
2013-2-19,45.0,35.6,21.0,38.0,26.0,9.0,93,72,46,30.11,29.57,29,4,31,0.11
2013-2-20,37.0,32.7,29.0,35.0,15.4,8.0,91,52,37,29.89,29.61,23,6,25,0.00
2013-2-21,32.0,28.4,25.0,18.0,13.7,11.0,69,57,48,30.37,29.85,24,8,27,0.00
2013-2-22,40.0,34.1,26.0,28.0,22.0,17.0,74,64,53,30.38,30.10,12,4,14,0.00
2013-2-23,41.0,38.8,36.0,39.0,35.1,27.0,95,88,67,30.20,29.75,10,3,10,0.07
2013-2-24,45.0,39.4,37.0,42.0,32.7,24.0,97,80,54,30.04,29.70,19,5,20,0.09
2013-2-25,46.0,40.0,31.0,32.0,27.7,24.0,83,65,50,30.25,29.93,14,3,14,0.00
2013-2-26,48.0,39.8,30.0,35.0,28.2,24.0,94,67,47,30.26,29.73,14,3,15,0.02
2013-2-27,48.0,41.8,36.0,45.0,38.4,28.0,95,89,68,29.97,29.47,16,3,24,1.11
2013-2-28,46.0,42.1,40.0,43.0,38.5,32.0,96,87,73,29.62,29.51,11,3,11,0.15
2013-3-1,47.0,41.0,35.0,35.0,30.9,24.0,81,69,54,29.73,29.56,19,6,22,0.00
2013-3-2,40.0,35.9,32.0,27.0,24.4,15.0,73,66,56,29.73,29.66,19,7,19,0.00
2013-3-3,37.0,32.1,28.0,27.0,19.7,15.0,71,63,55,29.74,29.64,23,8,27,0.00
2013-3-4,39.0,35.1,31.0,24.0,21.8,20.0,70,61,52,29.97,29.71,29,9,29,0.00
2013-3-5,46.0,38.6,34.0,29.0,26.2,24.0,80,64,51,30.01,29.86,19,6,21,0.00
2013-3-6,48.0,40.4,34.0,36.0,29.3,25.0,84,67,52,30.04,29.95,23,7,27,0.00
2013-3-7,42.0,37.8,34.0,35.0,30.2,25.0,96,77,57,30.09,30.00,22,8,23,0.00
2013-3-8,43.0,37.2,34.0,38.0,32.2,23.0,97,85,61,30.27,30.01,19,9,23,0.20
2013-3-9,53.0,40.4,28.0,28.0,25.3,21.0,82,59,34,30.31,30.21,18,5,21,0.06
2013-3-10,57.0,44.5,27.0,36.0,29.3,21.0,86,60,37,30.32,30.14,21,6,22,0.00
2013-3-11,55.0,48.5,40.0,48.0,40.3,34.0,83,74,62,30.20,29.84,21,8,23,0.05
2013-3-12,58.0,52.4,42.0,56.0,48.3,29.0,95,86,75,29.97,29.61,19,7,24,1.67
2013-3-13,50.0,43.2,37.0,37.0,28.6,13.0,79,60,36,29.83,29.72,23,5,23,0.00
2013-3-14,40.0,33.2,30.0,26.0,14.7,9.0,62,49,41,29.89,29.79,24,8,26,0.00
2013-3-15,43.0,36.8,26.0,33.0,21.9,13.0,78,57,41,29.89,29.63,18,6,19,0.00
2013-3-16,41.0,35.6,28.0,25.0,18.1,13.0,65,52,39,30.01,29.73,13,4,16,0.00
2013-3-17,39.0,33.0,27.0,20.0,12.2,6.0,63,45,29,30.39,29.88,25,6,26,0.00
2013-3-18,41.0,31.9,21.0,27.0,15.4,8.0,87,56,32,30.39,29.81,11,3,15,0.00
2013-3-19,40.0,35.9,32.0,38.0,32.6,20.0,95,89,74,30.01,29.65,15,3,17,0.00
2013-3-20,44.0,36.1,29.0,27.0,21.2,17.0,83,59,37,29.78,29.71,16,4,23,0.16
2013-3-21,41.0,32.9,24.0,24.0,16.9,12.0,84,56,35,29.78,29.58,18,4,18,0.11
2013-3-22,41.0,34.6,24.0,26.0,20.6,13.0,73,60,44,29.78,29.65,20,3,22,0.03
2013-3-23,46.0,39.9,35.0,28.0,22.4,18.0,75,53,36,29.85,29.74,26,7,31,0.00
2013-3-24,47.0,40.9,37.0,25.0,23.5,22.0,61,52,42,29.87,29.63,18,6,19,0.00
2013-3-25,49.0,42.1,35.0,29.0,26.8,25.0,70,58,42,29.70,29.44,18,5,19,0.00
2013-3-26,50.0,43.5,38.0,33.0,26.9,20.0,71,55,38,29.83,29.55,14,4,15,0.00
2013-3-27,55.0,44.7,30.0,30.0,25.6,20.0,75,51,31,29.93,29.79,21,5,25,0.00
2013-3-28,51.0,46.6,42.0,38.0,33.0,29.0,70,60,53,30.07,29.88,18,6,21,0.00
2013-3-29,53.0,47.1,34.0,33.0,30.7,26.0,78,55,41,30.08,30.00,18,5,19,0.00
2013-3-30,60.0,47.5,34.0,37.0,26.7,21.0,81,49,25,30.10,29.99,17,3,18,0.00
2013-3-31,61.0,46.4,31.0,44.0,32.2,21.0,92,62,31,30.07,29.58,20,4,21,0.12
2013-4-1,59.0,45.5,36.0,53.0,33.8,15.0,95,68,35,29.89,29.52,24,6,26,0.02
2013-4-2,43.0,37.3,30.0,20.0,14.9,11.0,66,42,29,30.04,29.83,23,6,27,0.00
2013-4-3,44.0,38.5,34.0,20.0,16.8,15.0,59,43,32,30.31,29.97,27,8,30,0.00
2013-4-4,59.0,46.3,33.0,27.0,22.0,17.0,60,41,25,30.31,29.85,18,6,18,0.00
2013-4-5,60.0,48.7,41.0,27.0,24.0,12.0,55,41,26,30.17,29.70,27,7,27,0.00
2013-4-6,52.0,40.6,34.0,26.0,14.1,8.0,60,37,21,30.24,29.95,19,6,21,0.00
2013-4-7,64.0,51.7,35.0,43.0,31.7,15.0,75,49,25,30.20,29.87,27,8,31,0.00
2013-4-8,65.0,55.9,47.0,44.0,39.7,37.0,78,56,40,30.05,29.80,22,5,23,0.00
2013-4-9,72.0,63.3,57.0,52.0,46.1,42.0,67,54,39,29.98,29.80,20,6,20,0.23
2013-4-10,64.0,56.2,51.0,54.0,50.5,42.0,94,82,58,29.97,29.76,14,5,19,0.38
2013-4-11,51.0,45.1,37.0,49.0,34.7,23.0,93,70,41,30.09,29.82,23,7,23,0.11
2013-4-12,45.0,41.4,37.0,44.0,39.0,33.0,95,92,85,30.07,29.72,10,3,11,0.49
2013-4-13,57.0,48.7,41.0,49.0,40.9,37.0,94,76,53,29.95,29.76,10,2,11,0.01
2013-4-14,52.0,43.3,34.0,44.0,31.3,26.0,89,67,40,30.29,29.88,19,3,21,0.00
2013-4-15,66.0,54.6,34.0,39.0,34.1,26.0,84,49,35,30.31,30.17,19,5,20,0.00
2013-4-16,66.0,58.7,49.0,59.0,47.6,31.0,89,68,50,30.29,30.00,20,7,23,0.11
2013-4-17,68.0,57.1,48.0,56.0,38.8,33.0,89,53,31,30.29,30.09,19,5,21,0.11
2013-4-18,68.0,55.6,40.0,52.0,41.3,33.0,84,62,35,30.29,29.86,21,7,24,0.00
2013-4-19,77.0,64.8,48.0,64.0,58.0,44.0,91,80,63,29.99,29.50,26,8,28,0.60
2013-4-20,59.0,49.8,42.0,49.0,35.2,20.0,93,63,32,30.48,29.67,21,6,24,0.53
2013-4-21,54.0,44.4,37.0,26.0,21.7,18.0,58,43,28,30.62,30.29,25,6,25,0.00
2013-4-22,63.0,49.3,34.0,34.0,27.7,21.0,74,48,26,30.64,30.39,16,3,17,0.00
2013-4-23,57.0,46.7,37.0,42.0,35.7,28.0,81,67,57,30.47,29.99,8,2,10,0.00
2013-4-24,78.0,59.5,37.0,53.0,46.6,33.0,89,65,37,30.07,29.67,26,5,31,0.08
2013-4-25,63.0,52.9,42.0,54.0,33.3,28.0,85,50,29,30.34,29.73,21,6,22,0.08
2013-4-26,63.0,50.8,37.0,40.0,33.0,28.0,84,54,33,30.40,30.21,20,4,22,0.00
2013-4-27,70.0,54.3,36.0,41.0,33.2,28.0,80,49,25,30.40,30.21,14,2,16,0.00
2013-4-28,78.0,61.2,41.0,43.0,37.4,31.0,80,45,25,30.25,30.07,14,4,17,0.00
2013-4-29,63.0,58.2,53.0,53.0,46.9,32.0,92,69,36,30.22,30.13,17,4,17,0.05
2013-4-30,75.0,62.6,52.0,52.0,42.6,29.0,93,54,26,30.37,30.16,14,4,16,0.01
2013-5-1,80.0,64.1,46.0,44.0,36.7,29.0,66,39,20,30.40,30.28,14,4,14,0.00
2013-5-2,84.0,67.7,48.0,52.0,43.3,30.0,84,45,23,30.43,30.21,19,3,19,0.00
2013-5-3,76.0,64.1,52.0,43.0,37.4,30.0,57,39,23,30.43,30.26,11,3,12,0.00
2013-5-4,80.0,63.3,47.0,51.0,44.4,35.0,85,54,26,30.31,30.11,13,3,13,0.00
2013-5-5,77.0,60.8,44.0,47.0,40.6,34.0,85,52,23,30.25,30.09,13,4,13,0.00
2013-5-6,77.0,62.5,44.0,54.0,46.7,39.0,88,60,29,30.21,30.04,12,4,13,0.00
2013-5-7,83.0,69.2,54.0,57.0,53.9,50.0,88,62,33,30.11,29.99,13,3,14,0.00
2013-5-8,74.0,66.6,59.0,67.0,60.0,52.0,89,80,64,30.09,29.90,10,2,13,0.07
2013-5-9,72.0,62.8,55.0,61.0,56.6,52.0,92,81,61,29.96,29.83,10,2,11,0.00
2013-5-10,82.0,70.2,54.0,67.0,57.1,52.0,94,66,40,29.94,29.71,13,3,14,0.00
2013-5-11,72.0,67.1,61.0,68.0,61.9,51.0,92,84,67,29.79,29.63,14,5,16,0.45
2013-5-12,66.0,57.8,50.0,54.0,42.3,26.0,87,60,28,29.92,29.61,19,4,23,0.13
2013-5-13,56.0,49.2,38.0,35.0,29.7,26.0,79,50,38,30.07,29.84,16,4,18,0.00
2013-5-14,63.0,49.0,37.0,39.0,32.0,26.0,88,58,28,30.07,29.95,16,3,19,0.00
2013-5-15,71.0,55.5,37.0,56.0,46.2,33.0,88,73,50,30.00,29.58,21,3,23,0.05
2013-5-16,86.0,71.4,54.0,62.0,44.9,36.0,91,47,19,30.00,29.64,22,4,22,0.00
2013-5-17,74.0,63.1,53.0,48.0,43.1,39.0,76,50,32,30.24,29.82,18,5,21,0.00
2013-5-18,74.0,61.8,46.0,54.0,48.8,42.0,89,66,34,30.26,30.17,15,3,19,0.00
2013-5-19,63.0,61.1,59.0,60.0,57.3,53.0,92,88,78,30.26,30.00,11,3,15,0.02
2013-5-20,87.0,72.5,61.0,68.0,63.8,58.0,93,76,51,30.10,29.85,8,2,9,0.00
2013-5-21,94.0,76.0,64.0,73.0,68.4,61.0,93,79,48,29.90,29.74,19,2,20,0.56
2013-5-22,82.0,74.7,67.0,73.0,69.6,63.0,94,85,72,29.84,29.73,14,4,16,0.56
2013-5-23,79.0,73.6,70.0,73.0,68.0,63.0,92,83,71,29.80,29.63,14,4,16,0.38
2013-5-24,71.0,55.5,47.0,69.0,51.8,44.0,94,88,73,29.94,29.62,23,6,53,1.01
2013-5-25,53.0,50.1,48.0,47.0,44.1,41.0,92,80,70,29.90,29.82,26,9,31,0.39
2013-5-26,64.0,54.3,45.0,45.0,41.8,38.0,86,64,43,30.15,29.82,27,7,31,0.00
2013-5-27,77.0,60.9,41.0,53.0,40.2,35.0,92,53,23,30.17,30.05,19,3,19,0.00
2013-5-28,73.0,60.5,46.0,59.0,50.7,38.0,89,72,42,30.17,30.00,13,2,14,0.72
2013-5-29,85.0,70.1,62.0,74.0,65.5,59.0,95,87,64,30.08,29.88,30,3,42,1.29
2013-5-30,96.0,77.6,64.0,78.0,70.1,63.0,97,80,45,30.07,29.98,11,2,11,0.02
2013-5-31,97.0,82.3,69.0,76.0,69.2,62.0,95,68,38,30.07,29.89,14,2,14,0.00
2013-6-1,95.0,82.9,69.0,73.0,68.9,62.0,82,64,45,29.93,29.75,19,3,19,0.00
2013-6-2,91.0,79.0,72.0,75.0,70.9,68.0,92,77,55,29.80,29.67,15,4,16,0.15
2013-6-3,78.0,69.2,60.0,69.0,58.7,43.0,94,71,52,29.94,29.74,14,5,19,0.02
2013-6-4,76.0,65.9,57.0,47.0,43.8,40.0,64,46,32,30.15,29.91,22,6,23,0.00
2013-6-5,78.0,66.5,52.0,55.0,48.8,42.0,81,55,32,30.17,30.05,8,2,10,0.00
2013-6-6,76.0,65.7,59.0,60.0,55.2,49.0,93,71,45,30.10,29.91,18,2,18,0.13
2013-6-7,64.0,61.5,60.0,63.0,60.4,58.0,96,96,93,29.98,29.65,14,3,14,1.49
2013-6-8,79.0,67.0,59.0,66.0,60.5,55.0,96,81,56,30.11,29.65,11,4,13,0.46
2013-6-9,82.0,68.5,57.0,69.0,59.7,55.0,95,76,46,30.14,30.03,8,2,9,0.00
2013-6-10,69.0,64.4,59.0,67.0,62.8,57.0,97,95,87,30.14,29.67,6,2,7,0.37
2013-6-11,79.0,69.6,64.0,77.0,64.9,55.0,99,87,68,29.81,29.53,19,3,20,0.34
2013-6-12,77.0,67.8,59.0,60.0,56.1,54.0,90,68,47,29.81,29.63,19,5,24,0.00
2013-6-13,62.0,59.8,57.0,61.0,58.4,55.0,97,95,90,29.79,29.60,16,3,17,0.13
2013-6-14,79.0,67.3,57.0,63.0,58.9,53.0,96,76,46,29.91,29.62,17,4,18,0.15
2013-6-15,83.0,69.2,57.0,61.0,54.2,48.0,91,63,32,29.95,29.83,16,3,16,0.00
2013-6-16,78.0,69.8,56.0,65.0,60.1,53.0,92,73,57,29.94,29.67,11,2,13,0.00
2013-6-17,90.0,72.8,62.0,71.0,64.4,59.0,94,78,40,29.88,29.75,28,3,33,0.00
2013-6-18,71.0,65.6,62.0,68.0,60.3,50.0,97,84,68,29.98,29.84,16,4,19,0.00
2013-6-19,77.0,64.9,56.0,55.0,51.3,46.0,91,65,38,30.22,29.90,17,4,18,0.00
2013-6-20,85.0,69.6,52.0,60.0,56.4,49.0,95,66,42,30.23,30.14,10,2,11,0.00
2013-6-21,87.0,77.2,62.0,70.0,65.4,57.0,89,69,53,30.23,30.15,9,2,10,0.00
2013-6-22,88.0,77.6,64.0,68.0,64.9,59.0,88,66,49,30.18,30.03,12,3,14,0.00
2013-6-23,94.0,83.9,74.0,76.0,70.6,63.0,79,66,43,30.09,29.95,14,4,18,0.00
2013-6-24,95.0,79.5,70.0,78.0,71.7,65.0,93,78,54,30.00,29.88,16,2,17,0.01
2013-6-25,93.0,79.3,67.0,77.0,71.5,65.0,96,79,53,29.95,29.72,16,2,16,0.00
2013-6-26,86.0,78.6,72.0,79.0,72.3,67.0,96,82,61,29.79,29.72,10,2,10,0.00
2013-6-27,90.0,78.7,69.0,79.0,72.3,67.0,97,82,59,29.79,29.38,19,3,24,0.12
2013-6-28,88.0,78.5,72.0,75.0,71.8,69.0,96,82,57,29.52,29.38,13,3,16,0.07
2013-6-29,87.0,77.2,70.0,75.0,69.7,66.0,97,80,55,29.74,29.44,14,3,18,0.00
2013-6-30,90.0,75.9,69.0,76.0,71.6,67.0,98,88,62,29.92,29.65,11,2,13,0.00
2013-7-1,82.0,76.4,72.0,81.0,75.3,71.0,99,97,90,30.04,29.87,11,2,11,0.00
2013-7-2,88.0,79.5,76.0,82.0,77.1,74.0,99,93,72,30.13,29.98,15,3,18,0.09
2013-7-3,91.0,83.0,77.0,79.0,76.4,73.0,94,81,65,30.17,30.08,10,4,13,0.01
2013-7-4,93.0,85.0,75.0,80.0,76.4,73.0,96,77,60,30.17,30.05,16,3,19,0.00
2013-7-5,95.0,87.0,79.0,80.0,76.8,74.0,91,73,58,30.13,30.00,11,3,14,0.00
2013-7-6,95.0,84.6,78.0,80.0,75.6,73.0,92,76,54,30.07,29.97,10,2,10,0.00
2013-7-7,95.0,82.1,75.0,86.0,77.5,73.0,96,87,64,30.01,29.86,11,2,11,0.00
2013-7-8,91.0,80.3,74.0,80.0,73.8,69.0,98,82,54,30.03,29.90,11,2,14,0.00
2013-7-9,90.0,79.9,72.0,79.0,74.1,70.0,97,84,65,30.04,29.88,11,2,12,0.00
2013-7-10,87.0,81.1,76.0,82.0,76.9,73.0,94,88,76,29.95,29.72,13,3,16,0.00
2013-7-11,87.0,79.7,74.0,76.0,69.0,62.0,96,72,46,30.03,29.72,16,4,18,0.01
2013-7-12,87.0,78.5,71.0,70.0,64.5,59.0,77,63,50,30.19,29.93,14,4,14,0.00
2013-7-13,79.0,74.3,69.0,76.0,70.5,59.0,96,89,54,30.28,30.13,8,2,8,0.00
2013-7-14,93.0,82.6,75.0,80.0,76.7,74.0,98,84,61,30.29,30.17,8,2,8,0.00
2013-7-15,96.0,86.3,78.0,83.0,73.9,67.0,97,69,44,30.20,30.10,13,3,16,0.00
2013-7-16,96.0,84.1,73.0,78.0,72.8,67.0,91,71,42,30.19,30.10,14,2,15,0.00
2013-7-17,97.0,85.6,74.0,80.0,75.8,72.0,96,75,48,30.18,30.00,8,2,10,0.00
2013-7-18,100.0,87.0,78.0,82.0,76.7,73.0,93,74,46,30.03,29.89,10,2,10,0.00
2013-7-19,100.0,88.6,77.0,82.0,77.5,73.0,96,72,49,29.94,29.71,14,3,15,0.00
2013-7-20,95.0,83.1,73.0,80.0,72.5,62.0,89,72,51,29.91,29.69,18,3,18,0.00
2013-7-21,89.0,78.2,67.0,73.0,68.0,61.0,92,73,51,29.98,29.86,12,2,13,0.00
2013-7-22,88.0,78.7,71.0,76.0,70.6,61.0,98,78,62,29.99,29.63,10,3,11,0.62
2013-7-23,86.0,78.5,75.0,82.0,76.1,73.0,100,93,69,29.77,29.51,13,2,13,0.59
2013-7-24,81.0,73.7,65.0,75.0,64.2,53.0,99,74,53,30.03,29.58,20,5,23,0.01
2013-7-25,77.0,68.5,60.0,62.0,57.2,53.0,78,68,55,30.07,29.98,14,4,15,0.00
2013-7-26,82.0,71.3,64.0,66.0,61.5,57.0,92,73,53,30.03,29.96,18,4,18,0.00
2013-7-27,87.0,74.5,63.0,77.0,66.0,61.0,98,77,49,30.02,29.90,11,2,13,0.00
2013-7-28,78.0,72.9,70.0,77.0,70.8,64.0,98,93,79,29.97,29.89,7,2,9,0.00
2013-7-29,87.0,76.2,67.0,74.0,67.0,58.0,98,75,53,30.11,29.92,11,3,13,0.00
2013-7-30,82.0,70.9,60.0,69.0,62.7,58.0,95,77,52,30.14,30.05,11,2,14,0.00
2013-7-31,85.0,73.3,61.0,69.0,63.8,59.0,96,75,48,30.14,29.92,7,1,8,0.00
2013-8-1,80.0,70.9,66.0,72.0,67.9,62.0,99,91,73,29.99,29.77,15,2,17,0.24
2013-8-2,87.0,73.3,66.0,77.0,67.7,62.0,100,85,46,29.86,29.77,18,2,18,0.18
2013-8-3,84.0,71.9,63.0,73.0,64.0,57.0,99,79,43,29.86,29.77,11,2,11,0.01
2013-8-4,80.0,70.3,60.0,73.0,59.0,53.0,96,70,42,30.00,29.81,19,4,20,0.46
2013-8-5,80.0,69.0,58.0,57.0,53.2,46.0,88,60,37,30.07,29.93,17,4,23,0.00
2013-8-6,83.0,71.0,54.0,65.0,58.7,52.0,96,69,42,30.11,30.02,10,2,10,0.00
2013-8-7,79.0,73.2,67.0,70.0,66.2,61.0,94,80,68,30.11,29.96,10,2,13,0.01
2013-8-8,87.0,79.2,72.0,77.0,74.2,70.0,98,86,70,30.00,29.86,13,3,16,0.11
2013-8-9,83.0,77.1,74.0,83.0,76.2,66.0,100,97,88,29.93,29.75,13,2,13,0.46
2013-8-10,84.0,74.3,63.0,75.0,61.6,52.0,99,67,44,30.09,29.83,18,3,18,0.01
2013-8-11,83.0,69.5,56.0,67.0,60.5,52.0,94,75,51,30.10,29.97,7,2,8,0.00
2013-8-12,84.0,74.1,62.0,71.0,65.7,59.0,97,77,48,30.01,29.76,8,2,8,0.00
2013-8-13,81.0,72.7,68.0,77.0,68.4,52.0,98,87,76,29.87,29.63,16,3,17,0.00
2013-8-14,75.0,68.4,61.0,63.0,55.7,52.0,83,65,51,30.07,29.74,22,5,22,0.00
2013-8-15,78.0,66.1,55.0,62.0,56.7,52.0,94,74,43,30.10,29.99,12,2,16,0.00
2013-8-16,60.0,59.7,59.0,58.0,57.7,57.0,93,93,92,30.10,30.10,1,0,1,0.00
2013-8-27,86.0,76.3,69.0,75.0,71.3,67.0,98,86,66,29.88,29.83,5,1,5,0.02
2013-8-28,91.0,76.2,68.0,80.0,71.4,67.0,99,87,56,29.95,29.79,11,2,14,0.00
2013-8-29,85.0,75.4,69.0,73.0,70.2,68.0,98,85,63,30.01,29.88,6,2,8,0.00
2013-8-30,88.0,78.6,71.0,75.0,72.0,68.0,95,82,63,29.98,29.75,10,2,11,0.00
2013-8-31,88.0,78.8,75.0,79.0,75.5,72.0,99,90,74,29.81,29.71,19,3,21,0.00
2013-9-1,88.0,79.0,72.0,79.0,75.9,72.0,100,91,74,29.83,29.73,9,1,9,0.00
2013-9-2,84.0,76.2,70.0,83.0,74.6,67.0,100,95,84,29.78,29.64,18,2,21,0.00
2013-9-3,80.0,71.6,65.0,72.0,65.8,58.0,100,83,60,29.92,29.70,16,2,18,0.00
2013-9-4,84.0,72.6,63.0,68.0,62.3,58.0,92,72,47,29.94,29.84,10,2,13,0.00
2013-9-5,74.0,67.0,57.0,66.0,54.3,44.0,94,66,36,30.23,29.86,19,4,21,0.00
2013-9-6,71.0,58.9,48.0,54.0,49.0,43.0,93,73,45,30.25,30.05,11,2,12,0.00
2013-9-7,79.0,64.7,51.0,66.0,58.8,49.0,97,83,48,30.09,29.77,9,1,9,0.00
2013-9-8,77.0,67.3,47.0,69.0,56.2,45.0,97,71,44,30.20,29.78,24,4,25,0.00
2013-9-9,74.0,63.0,47.0,66.0,53.7,45.0,95,74,52,30.21,30.03,15,3,18,0.00
2013-9-10,85.0,76.2,66.0,79.0,72.0,58.0,98,87,77,30.09,29.96,16,4,24,0.06
2013-9-11,97.0,83.3,74.0,83.0,77.3,70.0,97,84,61,30.05,29.85,16,3,18,0.43
2013-9-12,88.0,76.8,72.0,80.0,74.6,68.0,100,93,75,29.94,29.60,16,2,17,0.08
2013-9-13,76.0,68.2,59.0,72.0,61.3,49.0,100,80,65,29.92,29.61,23,6,23,0.01
2013-9-14,67.0,60.7,55.0,53.0,49.8,43.0,81,68,56,30.15,29.84,17,5,18,0.00
2013-9-15,73.0,60.2,45.0,59.0,52.6,44.0,96,78,54,30.18,30.00,9,2,10,0.00
2013-9-16,70.0,60.7,45.0,64.0,54.4,40.0,98,81,61,30.39,30.00,19,4,19,0.00
2013-9-17,67.0,54.4,43.0,51.0,45.5,40.0,94,74,48,30.46,30.29,17,3,19,0.00
2013-9-18,75.0,60.5,45.0,59.0,50.9,44.0,97,74,46,30.31,30.12,7,2,8,0.00
2013-9-19,79.0,62.4,47.0,61.0,54.5,45.0,96,78,46,30.14,30.02,7,1,9,0.00
2013-9-20,82.0,67.4,54.0,66.0,59.0,52.0,98,77,46,30.06,29.90,12,2,13,0.00
2013-9-21,77.0,70.1,62.0,70.0,64.7,59.0,97,84,70,29.95,29.58,19,5,24,0.51
2013-9-22,67.0,62.7,56.0,66.0,52.6,43.0,99,71,55,29.95,29.60,18,5,21,0.51
2013-9-23,65.0,57.3,51.0,48.0,44.8,40.0,77,64,50,30.04,29.90,21,6,23,0.00
2013-9-24,74.0,59.9,46.0,50.0,45.9,40.0,87,62,34,30.04,29.85,15,5,18,0.00
2013-9-25,73.0,59.9,45.0,58.0,51.4,43.0,95,76,52,30.01,29.85,12,2,13,0.00
2013-9-26,69.0,60.8,50.0,58.0,52.5,46.0,93,76,55,30.18,29.95,18,4,20,0.00
2013-9-27,66.0,57.9,48.0,57.0,52.3,46.0,97,83,66,30.31,30.12,13,3,14,0.00
2013-9-28,77.0,61.5,52.0,63.0,54.8,49.0,100,81,49,30.34,30.17,10,2,10,0.00
2013-9-29,77.0,60.9,51.0,70.0,55.7,48.0,100,85,52,30.21,30.03,7,2,8,0.00
2013-9-30,78.0,61.1,50.0,64.0,54.9,49.0,98,83,48,30.07,29.94,9,1,10,0.00
2013-10-1,80.0,63.8,51.0,66.0,59.0,49.0,99,86,58,30.00,29.87,7,1,8,0.00
2013-10-2,84.0,69.7,57.0,73.0,60.9,50.0,99,76,51,30.07,29.87,13,2,15,0.00
2013-10-3,80.0,64.0,52.0,65.0,56.3,50.0,96,79,42,30.10,30.00,6,1,8,0.00
2013-10-4,73.0,64.7,59.0,66.0,61.7,56.0,96,90,75,30.04,29.97,12,3,13,0.05
2013-10-5,75.0,65.4,59.0,66.0,61.7,57.0,99,88,71,30.08,30.01,13,3,14,0.07
2013-10-6,70.0,62.8,58.0,70.0,61.8,57.0,100,97,84,30.09,29.87,8,2,10,0.14
2013-10-7,79.0,68.6,56.0,75.0,66.4,47.0,100,93,76,30.14,29.56,32,4,34,0.02
2013-10-8,69.0,59.5,48.0,59.0,47.7,42.0,100,68,43,30.40,29.94,20,4,21,0.01
2013-10-9,68.0,54.6,44.0,56.0,47.5,42.0,99,80,47,30.44,30.26,13,2,13,0.00
2013-10-10,61.0,54.6,46.0,54.0,50.5,45.0,99,87,71,30.31,30.09,9,2,10,0.00
2013-10-11,76.0,59.4,48.0,58.0,50.8,44.0,97,77,39,30.18,30.03,10,3,13,0.00
2013-10-12,78.0,61.4,47.0,59.0,53.8,46.0,98,78,51,30.34,30.11,17,3,18,0.00
2013-10-13,73.0,62.1,54.0,56.0,53.2,47.0,88,74,52,30.38,30.28,11,2,12,0.00
2013-10-14,73.0,62.7,50.0,59.0,55.0,47.0,94,77,56,30.34,30.19,10,2,12,0.00
2013-10-15,76.0,66.0,60.0,63.0,58.1,44.0,94,77,62,30.23,30.05,10,2,13,0.00
2013-10-16,65.0,62.3,53.0,61.0,55.2,45.0,92,78,59,30.09,29.79,14,4,17,0.00
2013-10-17,78.0,68.4,62.0,66.0,60.4,53.0,96,77,48,29.87,29.55,16,3,20,0.05
2013-10-18,71.0,62.7,48.0,66.0,49.7,41.0,96,65,38,29.93,29.55,18,4,18,0.06
2013-10-19,69.0,58.4,47.0,54.0,46.6,38.0,89,68,42,29.93,29.67,22,4,24,0.00
2013-10-20,66.0,56.8,45.0,55.0,41.1,36.0,92,59,36,30.06,29.68,18,4,18,0.00
2013-10-21,71.0,58.0,44.0,49.0,43.9,39.0,85,62,38,30.10,29.78,18,5,20,0.00
2013-10-22,61.0,53.6,41.0,56.0,46.6,37.0,91,78,65,29.90,29.70,16,4,20,0.00
2013-10-23,58.0,47.7,38.0,51.0,40.2,30.0,97,77,48,29.80,29.59,14,2,14,0.00
2013-10-24,57.0,49.0,36.0,40.0,31.7,27.0,88,55,36,30.02,29.70,23,4,26,0.00
2013-10-25,55.0,46.9,40.0,39.0,35.4,31.0,82,65,45,30.14,29.91,21,4,23,0.00
2013-10-26,57.0,49.3,38.0,40.0,35.3,31.0,90,62,40,30.13,29.77,26,6,26,0.00
2013-10-27,58.0,49.3,37.0,40.0,35.4,31.0,89,61,41,30.09,29.77,22,3,24,0.00
2013-10-28,60.0,48.3,36.0,41.0,35.6,26.0,89,64,46,30.40,30.06,16,4,19,0.00
2013-10-29,51.0,42.2,36.0,34.0,28.4,26.0,80,62,43,30.43,30.24,12,3,13,0.00
2013-10-30,58.0,45.3,37.0,49.0,37.9,30.0,95,76,57,30.31,30.11,10,2,11,0.00
2013-10-31,68.0,55.7,37.0,65.0,54.8,35.0,100,97,88,30.19,29.44,24,5,26,0.24
2013-11-1,75.0,66.3,53.0,69.0,58.0,42.0,100,77,48,29.67,29.39,28,7,31,0.23
2013-11-2,69.0,54.7,45.0,57.0,48.2,31.0,96,80,50,30.04,29.57,22,4,27,0.01
2013-11-3,49.0,40.7,27.0,44.0,29.1,20.0,82,66,47,30.61,29.78,26,6,27,0.01
2013-11-4,45.0,36.1,27.0,27.0,22.5,20.0,81,62,40,30.63,30.46,18,3,19,0.00
2013-11-5,57.0,47.1,30.0,45.0,35.9,23.0,83,66,54,30.63,30.33,18,5,19,0.00
2013-11-6,62.0,56.6,49.0,56.0,47.9,42.0,83,73,62,30.43,29.77,26,8,28,0.00
2013-11-7,62.0,53.7,45.0,59.0,47.3,33.0,98,80,63,29.94,29.74,23,7,27,0.50
2013-11-8,50.0,45.0,39.0,39.0,32.8,25.0,77,63,48,30.20,29.86,25,5,44,0.00
2013-11-9,49.0,44.6,33.0,37.0,32.4,25.0,81,64,53,30.21,29.80,17,4,21,0.00
2013-11-10,56.0,48.8,45.0,45.0,37.8,32.0,85,66,49,30.11,29.75,26,5,31,0.00
2013-11-11,54.0,50.6,45.0,38.0,35.0,24.0,70,55,47,30.13,29.88,21,5,27,0.00
2013-11-12,52.0,36.9,31.0,38.0,24.2,17.0,75,62,54,30.31,29.88,23,6,32,0.00
2013-11-13,32.0,27.1,20.0,21.0,12.2,5.0,68,56,36,30.33,30.08,19,5,21,0.00
2013-11-14,46.0,35.1,22.0,19.0,14.1,8.0,68,46,32,30.16,30.03,14,4,15,0.00
2013-11-15,54.0,38.7,21.0,25.0,15.9,8.0,65,43,25,30.23,30.06,16,3,16,0.00
2013-11-16,55.0,44.7,34.0,40.0,29.2,17.0,86,57,39,30.27,30.15,14,3,16,0.00
2013-11-17,56.0,47.2,40.0,55.0,45.3,34.0,99,94,76,30.21,29.46,20,5,26,0.22
2013-11-18,58.0,50.9,34.0,55.0,35.7,16.0,99,60,34,29.92,29.46,26,6,26,0.26
2013-11-19,40.0,32.0,20.0,24.0,16.7,9.0,67,56,45,30.53,29.74,29,8,31,0.00
2013-11-20,33.0,23.9,15.0,13.0,10.5,6.0,78,60,42,30.60,30.34,17,4,17,0.00
2013-11-21,40.0,30.7,11.0,34.0,19.5,6.0,88,67,51,30.60,30.14,15,3,15,0.00
2013-11-22,44.0,40.4,38.0,42.0,36.7,17.0,97,87,66,30.31,29.85,24,4,27,0.02
2013-11-23,44.0,30.7,19.0,36.0,15.5,-2.0,76,56,36,30.04,29.83,29,8,36,0.00
2013-11-24,20.0,16.1,9.0,12.0,0.4,-5.0,89,53,35,30.38,29.93,33,9,36,0.00
2013-11-25,28.0,21.1,8.0,16.0,6.6,-1.0,81,56,46,30.40,30.19,21,5,26,0.00
2013-11-26,35.0,27.1,22.0,32.0,20.3,8.0,98,80,47,30.26,29.35,16,4,16,0.46
2013-11-27,36.0,31.8,23.0,35.0,27.5,7.0,99,87,55,30.00,29.35,26,7,33,0.05
2013-11-28,28.0,21.2,16.0,17.0,8.9,4.0,78,62,45,30.50,29.62,25,5,32,0.05
2013-11-29,27.0,20.3,13.0,14.0,9.9,2.0,81,67,56,30.74,30.41,14,3,14,0.00
2013-11-30,29.0,21.1,7.0,20.0,8.6,2.0,85,62,48,30.74,30.18,13,4,15,0.00
2013-12-1,34.0,29.6,25.0,24.0,21.6,15.0,85,75,65,30.32,29.93,8,2,10,0.03
2013-12-2,34.0,28.0,21.0,29.0,23.6,18.0,94,87,81,29.99,29.86,5,1,5,0.34
2013-12-3,38.0,27.9,18.0,35.0,23.6,14.0,98,88,75,30.09,29.86,14,2,16,0.11
2013-12-4,39.0,27.2,18.0,27.0,21.1,14.0,94,82,62,30.11,29.97,10,1,10,0.01
2013-12-5,49.0,41.3,28.0,49.0,39.7,23.0,99,95,84,30.11,29.83,21,6,22,0.27
2013-12-6,49.0,34.7,27.0,49.0,30.8,23.0,99,88,69,30.20,29.83,19,6,21,0.43
2013-12-7,32.0,27.5,24.0,27.0,18.1,10.0,99,72,53,30.53,30.10,19,5,19,0.03
2013-12-8,25.0,23.1,20.0,19.0,13.9,10.0,92,71,59,30.56,30.16,9,2,10,0.00
2013-12-9,29.0,25.8,21.0,27.0,23.6,14.0,99,95,76,30.38,29.87,15,2,15,0.04
2013-12-10,28.0,23.0,14.0,27.0,21.0,9.0,100,95,79,30.17,29.80,14,2,14,0.04
2013-12-11,25.0,19.6,13.0,16.0,11.9,2.0,89,75,59,30.27,30.01,15,4,17,0.00
2013-12-12,20.0,15.0,9.0,9.0,2.0,-2.0,83,59,43,30.30,29.97,17,4,19,0.00
2013-12-13,26.0,16.6,5.0,13.0,4.6,-3.0,77,62,47,30.47,29.97,18,6,21,0.00
2013-12-14,18.0,7.9,4.0,9.0,2.5,-3.0,92,82,63,30.53,29.55,16,5,16,0.00
2013-12-15,26.0,19.6,11.0,22.0,14.1,1.0,96,84,50,29.96,29.51,19,4,21,0.00
2013-12-16,24.0,15.3,-6.0,15.0,2.4,-13.0,84,61,42,30.20,29.70,19,3,19,0.00
2013-12-17,9.0,3.4,-8.0,5.0,-0.6,-13.0,90,87,80,30.21,29.91,10,2,11,0.00
2013-12-18,24.0,17.6,3.0,19.0,12.5,-1.0,90,84,74,30.07,29.91,13,3,13,0.00
2013-12-19,37.0,27.1,22.0,22.0,17.2,14.0,82,70,50,30.07,29.93,21,4,23,0.01
2013-12-20,45.0,37.6,23.0,30.0,24.6,17.0,82,63,53,30.04,29.84,16,5,19,0.28
2013-12-21,54.0,45.6,41.0,45.0,35.0,25.0,85,68,54,29.91,29.67,23,5,23,0.00
2013-12-22,60.0,54.4,41.0,56.0,49.3,35.0,95,83,72,29.97,29.61,23,8,26,0.11
2013-12-23,54.0,35.4,22.0,49.0,31.3,13.0,99,87,69,30.15,29.85,19,6,21,0.67
2013-12-24,30.0,22.9,14.0,22.0,11.5,-2.0,75,64,54,30.45,30.07,22,7,24,0.00
2013-12-25,21.0,13.9,8.0,12.0,1.1,-3.0,71,59,51,30.49,30.23,16,5,18,0.00
2013-12-26,26.0,20.8,13.0,18.0,13.1,4.0,90,76,61,30.36,30.07,18,4,18,0.00
2013-12-27,31.0,21.9,12.0,21.0,14.7,9.0,92,78,60,30.26,30.06,19,2,19,0.00
2013-12-28,43.0,28.7,18.0,24.0,18.8,12.0,86,71,48,30.18,29.91,18,3,18,0.00
2013-12-29,35.0,29.3,22.0,31.0,25.8,17.0,99,91,75,29.98,29.50,18,3,20,0.01
2013-12-30,29.0,19.7,6.0,28.0,12.6,-1.0,99,78,55,30.18,29.62,26,5,26,0.02
2013-12-31,20.0,14.0,6.0,14.0,4.4,-1.0,85,69,48,30.28,29.97,21,3,24,0.00
2014-1-1,22.0,15.9,9.0,10.0,4.2,-3.0,92,64,40,30.33,30.18,21,4,24,0.00
2014-1-2,14.0,0.5,-7.0,10.0,-3.6,-12.0,92,87,81,30.27,29.80,27,9,29,0.00